createdAt,value
2019-02-28T00:00:41.412Z,10.70
2019-02-28T00:01:43.248Z,10.68
2019-02-28T00:02:42.120Z,10.77
2019-02-28T00:03:41.110Z,10.72
2019-02-28T00:04:41.075Z,10.74
2019-02-28T00:05:41.057Z,10.78
2019-02-28T00:06:43.981Z,10.77
2019-02-28T00:07:41.038Z,10.71
2019-02-28T00:08:41.062Z,10.71
2019-02-28T00:09:40.998Z,10.77
2019-02-28T00:10:40.994Z,10.70
2019-02-28T00:11:41.002Z,10.77
2019-02-28T00:12:40.982Z,10.77
2019-02-28T00:13:40.982Z,10.74
2019-02-28T00:14:40.967Z,10.79
2019-02-28T00:15:40.929Z,10.78
2019-02-28T00:16:40.938Z,10.85
2019-02-28T00:17:43.498Z,10.83
2019-02-28T00:18:40.984Z,10.83
2019-02-28T00:19:40.897Z,10.83
2019-02-28T00:20:40.882Z,10.77
2019-02-28T00:21:41.321Z,10.85
2019-02-28T00:22:40.851Z,10.79
2019-02-28T00:23:40.857Z,10.87
2019-02-28T00:24:40.866Z,10.82
2019-02-28T00:25:40.819Z,10.85
2019-02-28T00:26:46.276Z,10.79
2019-02-28T00:27:41.792Z,10.87
2019-02-28T00:28:40.802Z,10.96
2019-02-28T00:29:40.778Z,10.92
2019-02-28T00:30:41.547Z,10.89
2019-02-28T00:31:40.756Z,10.92
2019-02-28T00:32:40.741Z,10.96
2019-02-28T00:33:40.744Z,10.96
2019-02-28T00:34:40.725Z,11.00
2019-02-28T00:35:40.711Z,11.04
2019-02-28T00:36:40.698Z,11.05
2019-02-28T00:37:40.679Z,11.04
2019-02-28T00:38:40.699Z,11.05
2019-02-28T00:39:40.665Z,11.03
2019-02-28T00:40:40.647Z,11.08
2019-02-28T00:41:44.451Z,11.05
2019-02-28T00:42:40.624Z,11.04
2019-02-28T00:43:40.631Z,11.04
2019-02-28T00:44:40.605Z,11.10
2019-02-28T00:45:40.639Z,11.10
2019-02-28T00:46:43.859Z,11.05
2019-02-28T00:47:40.573Z,11.12
2019-02-28T00:48:40.575Z,11.07
2019-02-28T00:49:40.572Z,11.12
2019-02-28T00:50:40.531Z,11.08
2019-02-28T00:51:40.518Z,11.14
2019-02-28T00:52:40.518Z,11.10
2019-02-28T00:53:40.525Z,11.11
2019-02-28T00:54:44.303Z,11.12
2019-02-28T00:55:40.540Z,11.10
2019-02-28T00:56:40.478Z,11.05
2019-02-28T00:57:40.447Z,11.03
2019-02-28T00:58:40.435Z,11.10
2019-02-28T00:59:40.453Z,11.11
2019-02-28T01:00:40.415Z,11.10
2019-02-28T01:01:43.095Z,11.12
2019-02-28T01:02:41.388Z,11.12
2019-02-28T01:03:40.383Z,11.12
2019-02-28T01:04:40.393Z,11.10
2019-02-28T01:05:40.369Z,11.11
2019-02-28T01:06:41.773Z,11.20
2019-02-28T01:07:40.351Z,11.10
2019-02-28T01:08:40.321Z,11.19
2019-02-28T01:09:40.333Z,11.20
2019-02-28T01:10:40.297Z,11.15
2019-02-28T01:11:40.296Z,11.12
2019-02-28T01:12:40.286Z,11.22
2019-02-28T01:13:40.272Z,11.19
2019-02-28T01:14:40.272Z,11.14
2019-02-28T01:15:44.502Z,11.14
2019-02-28T01:16:41.414Z,11.19
2019-02-28T01:17:40.233Z,11.17
2019-02-28T01:18:40.209Z,11.28
2019-02-28T01:19:41.286Z,11.26
2019-02-28T01:20:40.189Z,11.23
2019-02-28T01:21:40.180Z,11.28
2019-02-28T01:22:40.176Z,11.26
2019-02-28T01:23:40.159Z,11.28
2019-02-28T01:24:40.161Z,11.28
2019-02-28T01:25:40.878Z,11.29
2019-02-28T01:26:40.134Z,11.33
2019-02-28T01:27:40.106Z,11.28
2019-02-28T01:28:40.098Z,11.32
2019-02-28T01:29:40.106Z,11.25
2019-02-28T01:30:40.564Z,11.28
2019-02-28T01:31:42.535Z,11.33
2019-02-28T01:32:40.056Z,11.30
2019-02-28T01:33:40.038Z,11.26
2019-02-28T01:34:40.046Z,11.33
2019-02-28T01:35:40.801Z,11.28
2019-02-28T01:36:40.002Z,11.28
2019-02-28T01:37:39.989Z,11.28
2019-02-28T01:38:40.003Z,11.29
2019-02-28T01:39:39.975Z,11.23
2019-02-28T01:40:39.978Z,11.33
2019-02-28T01:41:42.262Z,11.26
2019-02-28T01:42:40.942Z,11.23
2019-02-28T01:43:39.930Z,11.35
2019-02-28T01:44:39.915Z,11.23
2019-02-28T01:45:43.443Z,11.22
2019-02-28T01:46:39.897Z,11.23
2019-02-28T01:47:39.877Z,11.28
2019-02-28T01:48:39.865Z,11.28
2019-02-28T01:49:39.885Z,11.26
2019-02-28T01:50:39.890Z,11.20
2019-02-28T01:51:39.832Z,11.20
2019-02-28T01:52:44.401Z,11.14
2019-02-28T01:53:40.809Z,11.12
2019-02-28T01:54:39.799Z,11.17
2019-02-28T01:55:39.801Z,11.25
2019-02-28T01:56:39.786Z,11.25
2019-02-28T01:57:43.740Z,11.15
2019-02-28T01:58:39.752Z,11.22
2019-02-28T01:59:39.736Z,11.23
2019-02-28T02:00:39.756Z,11.17
2019-02-28T02:01:39.717Z,11.20
2019-02-28T02:02:39.730Z,11.14
2019-02-28T02:03:40.706Z,11.14
2019-02-28T02:04:39.680Z,11.20
2019-02-28T02:05:39.696Z,11.20
2019-02-28T02:06:39.659Z,11.20
2019-02-28T02:07:39.653Z,11.14
2019-02-28T02:08:39.639Z,11.14
2019-02-28T02:09:42.694Z,11.14
2019-02-28T02:10:40.644Z,11.12
2019-02-28T02:11:39.655Z,11.12
2019-02-28T02:12:39.592Z,11.14
2019-02-28T02:13:39.580Z,11.11
2019-02-28T02:14:39.588Z,11.08
2019-02-28T02:15:39.569Z,11.12
2019-02-28T02:16:39.573Z,11.10
2019-02-28T02:17:39.532Z,11.01
2019-02-28T02:18:40.262Z,11.05
2019-02-28T02:19:39.510Z,11.05
2019-02-28T02:20:39.499Z,11.07
2019-02-28T02:21:39.499Z,11.07
2019-02-28T02:22:40.636Z,11.01
2019-02-28T02:23:39.477Z,11.01
2019-02-28T02:24:39.483Z,11.01
2019-02-28T02:25:39.438Z,10.95
2019-02-28T02:26:42.302Z,10.97
2019-02-28T02:27:40.421Z,10.97
2019-02-28T02:28:39.422Z,11.04
2019-02-28T02:29:39.392Z,10.97
2019-02-28T02:30:39.385Z,10.92
2019-02-28T02:31:39.412Z,10.92
2019-02-28T02:32:39.357Z,10.92
2019-02-28T02:33:39.364Z,10.95
2019-02-28T02:34:39.336Z,10.87
2019-02-28T02:35:42.576Z,10.87
2019-02-28T02:36:39.334Z,10.92
2019-02-28T02:37:39.297Z,10.93
2019-02-28T02:38:41.435Z,10.83
2019-02-28T02:39:39.285Z,10.79
2019-02-28T02:40:39.266Z,10.95
2019-02-28T02:41:39.281Z,10.95
2019-02-28T02:42:39.250Z,10.85
2019-02-28T02:43:39.231Z,10.92
2019-02-28T02:44:39.222Z,10.82
2019-02-28T02:45:43.415Z,10.90
2019-02-28T02:46:39.229Z,10.85
2019-02-28T02:47:39.189Z,10.86
2019-02-28T02:48:42.295Z,10.79
2019-02-28T02:49:39.165Z,10.83
2019-02-28T02:50:39.172Z,10.85
2019-02-28T02:51:39.224Z,10.82
2019-02-28T02:52:39.138Z,10.78
2019-02-28T02:53:42.097Z,10.83
2019-02-28T02:54:39.106Z,10.74
2019-02-28T02:55:39.093Z,10.77
2019-02-28T02:56:41.967Z,10.77
2019-02-28T02:57:39.123Z,10.79
2019-02-28T02:58:39.070Z,10.77
2019-02-28T02:59:39.490Z,10.70
2019-02-28T03:00:39.059Z,10.68
2019-02-28T03:01:39.029Z,10.64
2019-02-28T03:02:39.035Z,10.64
2019-02-28T03:03:42.678Z,10.64
2019-02-28T03:04:40.000Z,10.67
2019-02-28T03:05:38.995Z,10.67
2019-02-28T03:06:38.969Z,10.64
2019-02-28T03:07:38.979Z,10.67
2019-02-28T03:08:38.970Z,10.62
2019-02-28T03:09:43.290Z,10.56
2019-02-28T03:10:39.925Z,10.52
2019-02-28T03:11:38.915Z,10.56
2019-02-28T03:12:38.916Z,10.60
2019-02-28T03:13:43.580Z,10.56
2019-02-28T03:14:39.887Z,10.56
2019-02-28T03:15:38.868Z,10.53
2019-02-28T03:16:38.866Z,10.54
2019-02-28T03:17:38.874Z,10.49
2019-02-28T03:18:38.834Z,10.43
2019-02-28T03:19:38.826Z,10.35
2019-02-28T03:20:41.278Z,10.38
2019-02-28T03:21:38.815Z,10.46
2019-02-28T03:22:38.806Z,10.41
2019-02-28T03:23:40.527Z,10.45
2019-02-28T03:24:38.766Z,10.45
2019-02-28T03:25:38.748Z,10.35
2019-02-28T03:26:41.930Z,10.38
2019-02-28T03:27:38.780Z,10.30
2019-02-28T03:28:38.715Z,10.37
2019-02-28T03:29:43.519Z,10.40
2019-02-28T03:30:39.716Z,10.35
2019-02-28T03:31:38.683Z,10.41
2019-02-28T03:32:42.011Z,10.34
2019-02-28T03:33:38.693Z,10.34
2019-02-28T03:34:38.672Z,10.33
2019-02-28T03:35:43.285Z,10.33
2019-02-28T03:36:39.649Z,10.31
2019-02-28T03:37:38.630Z,10.27
2019-02-28T03:38:38.611Z,10.26
2019-02-28T03:39:38.601Z,10.22
2019-02-28T03:40:40.432Z,10.18
2019-02-28T03:41:38.566Z,10.20
2019-02-28T03:42:38.592Z,10.16
2019-02-28T03:43:43.940Z,10.22
2019-02-28T03:44:39.529Z,10.19
2019-02-28T03:45:38.527Z,10.23
2019-02-28T03:46:38.535Z,10.19
2019-02-28T03:47:38.534Z,10.16
2019-02-28T03:48:38.508Z,10.12
2019-02-28T03:49:38.476Z,10.12
2019-02-28T03:50:38.494Z,10.16
2019-02-28T03:51:38.469Z,10.08
2019-02-28T03:52:44.057Z,10.08
2019-02-28T03:53:39.461Z,10.10
2019-02-28T03:54:38.422Z,10.15
2019-02-28T03:55:40.880Z,10.09
2019-02-28T03:56:38.401Z,10.08
2019-02-28T03:57:38.388Z,10.13
2019-02-28T03:58:42.782Z,10.08
2019-02-28T03:59:38.375Z,10.08
2019-02-28T04:00:38.371Z,10.09
2019-02-28T04:01:45.041Z,10.04
2019-02-28T04:02:39.335Z,10.10
2019-02-28T04:03:38.335Z,10.06
2019-02-28T04:04:38.383Z,10.00
2019-02-28T04:05:38.304Z,10.00
2019-02-28T04:06:40.815Z,10.02
2019-02-28T04:07:38.290Z,9.95
2019-02-28T04:08:38.293Z,9.98
2019-02-28T04:09:43.743Z,9.97
2019-02-28T04:10:39.241Z,9.98
2019-02-28T04:11:38.233Z,9.97
2019-02-28T04:12:45.103Z,9.94
2019-02-28T04:13:39.226Z,9.93
2019-02-28T04:14:38.213Z,9.93
2019-02-28T04:15:38.193Z,10.02
2019-02-28T04:16:38.177Z,9.93
2019-02-28T04:17:38.164Z,9.98
2019-02-28T04:18:44.358Z,9.94
2019-02-28T04:19:39.138Z,9.93
2019-02-28T04:20:38.157Z,9.98
2019-02-28T04:21:38.134Z,9.93
2019-02-28T04:22:38.105Z,9.93
2019-02-28T04:23:38.113Z,9.95
2019-02-28T04:24:38.090Z,9.98
2019-02-28T04:25:38.079Z,9.88
2019-02-28T04:26:38.070Z,9.91
2019-02-28T04:27:40.240Z,9.83
2019-02-28T04:28:38.061Z,9.83
2019-02-28T04:29:38.034Z,9.85
2019-02-28T04:30:42.190Z,9.93
2019-02-28T04:31:39.014Z,9.88
2019-02-28T04:32:37.997Z,9.93
2019-02-28T04:33:39.325Z,9.90
2019-02-28T04:34:38.012Z,9.88
2019-02-28T04:35:37.968Z,9.83
2019-02-28T04:36:37.943Z,9.86
2019-02-28T04:37:44.984Z,9.83
2019-02-28T04:38:38.925Z,9.86
2019-02-28T04:39:37.931Z,9.91
2019-02-28T04:40:37.926Z,9.88
2019-02-28T04:41:37.912Z,9.85
2019-02-28T04:42:37.878Z,9.80
2019-02-28T04:43:37.873Z,9.86
2019-02-28T04:44:37.888Z,9.77
2019-02-28T04:45:37.846Z,9.80
2019-02-28T04:46:37.838Z,9.75
2019-02-28T04:47:40.553Z,9.75
2019-02-28T04:48:37.808Z,9.75
2019-02-28T04:49:37.823Z,9.79
2019-02-28T04:50:37.805Z,9.73
2019-02-28T04:51:40.204Z,9.77
2019-02-28T04:52:37.763Z,9.69
2019-02-28T04:53:37.769Z,9.70
2019-02-28T04:54:37.762Z,9.70
2019-02-28T04:55:37.990Z,9.70
2019-02-28T04:56:37.737Z,9.75
2019-02-28T04:57:37.709Z,9.76
2019-02-28T04:58:37.694Z,9.83
2019-02-28T04:59:37.721Z,9.79
2019-02-28T05:00:38.066Z,9.77
2019-02-28T05:01:37.670Z,9.76
2019-02-28T05:02:37.666Z,9.77
2019-02-28T05:03:37.642Z,9.90
2019-02-28T05:04:37.659Z,9.83
2019-02-28T05:05:37.619Z,9.86
2019-02-28T05:06:37.602Z,9.85
2019-02-28T05:07:37.600Z,9.76
2019-02-28T05:08:38.943Z,9.75
2019-02-28T05:09:37.590Z,9.65
2019-02-28T05:10:37.557Z,9.70
2019-02-28T05:11:37.548Z,9.61
2019-02-28T05:12:39.836Z,9.65
2019-02-28T05:13:37.531Z,9.59
2019-02-28T05:14:37.536Z,9.55
2019-02-28T05:15:39.438Z,9.55
2019-02-28T05:16:37.492Z,9.52
2019-02-28T05:17:37.477Z,9.49
2019-02-28T05:18:37.479Z,9.52
2019-02-28T05:19:37.497Z,9.44
2019-02-28T05:20:37.452Z,9.46
2019-02-28T05:21:37.432Z,9.47
2019-02-28T05:22:37.423Z,9.57
2019-02-28T05:23:37.412Z,9.46
2019-02-28T05:24:39.506Z,9.51
2019-02-28T05:25:38.388Z,9.46
2019-02-28T05:26:37.376Z,9.47
2019-02-28T05:27:37.366Z,9.52
2019-02-28T05:28:40.538Z,9.46
2019-02-28T05:29:37.374Z,9.51
2019-02-28T05:30:37.333Z,9.44
2019-02-28T05:31:37.328Z,9.49
2019-02-28T05:32:37.319Z,9.37
2019-02-28T05:33:38.319Z,9.36
2019-02-28T05:34:37.312Z,9.34
2019-02-28T05:35:37.275Z,9.33
2019-02-28T05:36:38.041Z,9.43
2019-02-28T05:37:37.260Z,9.28
2019-02-28T05:38:37.243Z,9.29
2019-02-28T05:39:37.248Z,9.33
2019-02-28T05:40:40.605Z,9.37
2019-02-28T05:41:37.234Z,9.14
2019-02-28T05:42:37.199Z,9.32
2019-02-28T05:43:37.195Z,9.32
2019-02-28T05:44:37.457Z,9.22
2019-02-28T05:45:37.164Z,9.21
2019-02-28T05:46:37.153Z,9.15
2019-02-28T05:47:45.733Z,9.16
2019-02-28T05:48:38.688Z,9.15
2019-02-28T05:49:37.134Z,9.19
2019-02-28T05:50:37.253Z,9.24
2019-02-28T05:51:37.101Z,9.18
2019-02-28T05:52:37.092Z,9.19
2019-02-28T05:53:37.079Z,9.25
2019-02-28T05:54:37.097Z,9.19
2019-02-28T05:55:37.060Z,9.24
2019-02-28T05:56:37.065Z,9.21
2019-02-28T05:57:39.402Z,9.14
2019-02-28T05:58:38.041Z,9.16
2019-02-28T05:59:37.017Z,9.14
2019-02-28T06:00:37.768Z,9.14
2019-02-28T06:01:36.983Z,9.11
2019-02-28T06:02:36.974Z,9.18
2019-02-28T06:03:36.970Z,9.10
2019-02-28T06:04:37.783Z,9.19
2019-02-28T06:05:38.849Z,9.11
2019-02-28T06:06:36.942Z,9.06
2019-02-28T06:07:36.916Z,9.15
2019-02-28T06:08:39.165Z,9.15
2019-02-28T06:09:36.910Z,9.25
2019-02-28T06:10:36.910Z,9.16
2019-02-28T06:11:36.871Z,9.19
2019-02-28T06:12:36.929Z,9.15
2019-02-28T06:13:37.144Z,9.16
2019-02-28T06:14:36.839Z,9.24
2019-02-28T06:15:37.148Z,9.19
2019-02-28T06:16:36.822Z,9.25
2019-02-28T06:17:36.816Z,9.24
2019-02-28T06:18:36.791Z,9.19
2019-02-28T06:19:36.813Z,9.18
2019-02-28T06:20:36.817Z,9.25
2019-02-28T06:21:36.768Z,9.22
2019-02-28T06:22:36.748Z,9.19
2019-02-28T06:23:36.745Z,9.06
2019-02-28T06:24:36.751Z,9.18
2019-02-28T06:25:36.711Z,9.22
2019-02-28T06:26:36.722Z,9.10
2019-02-28T06:27:41.531Z,9.14
2019-02-28T06:28:37.689Z,9.11
2019-02-28T06:29:37.520Z,9.10
2019-02-28T06:30:36.668Z,9.03
2019-02-28T06:31:36.689Z,9.02
2019-02-28T06:32:36.638Z,8.98
2019-02-28T06:33:36.621Z,9.08
2019-02-28T06:34:39.419Z,8.98
2019-02-28T06:35:37.603Z,8.98
2019-02-28T06:36:36.666Z,8.98
2019-02-28T06:37:38.374Z,9.02
2019-02-28T06:38:36.575Z,9.03
2019-02-28T06:39:37.559Z,8.99
2019-02-28T06:40:36.573Z,8.99
2019-02-28T06:41:39.901Z,8.95
2019-02-28T06:42:36.525Z,8.90
2019-02-28T06:43:36.519Z,8.93
2019-02-28T06:44:36.526Z,8.91
2019-02-28T06:45:37.728Z,8.85
2019-02-28T06:46:39.845Z,8.88
2019-02-28T06:47:36.504Z,8.87
2019-02-28T06:48:36.472Z,8.91
2019-02-28T06:49:40.980Z,8.93
2019-02-28T06:50:37.463Z,8.95
2019-02-28T06:51:37.906Z,8.90
2019-02-28T06:52:36.419Z,8.87
2019-02-28T06:53:36.431Z,8.93
2019-02-28T06:54:39.254Z,8.90
2019-02-28T06:55:36.380Z,8.80
2019-02-28T06:56:36.389Z,8.78
2019-02-28T06:57:36.372Z,8.81
2019-02-28T06:58:36.353Z,8.77
2019-02-28T06:59:39.164Z,8.78
2019-02-28T07:00:36.351Z,8.73
2019-02-28T07:01:36.334Z,8.72
2019-02-28T07:02:36.300Z,8.70
2019-02-28T07:03:38.758Z,8.72
2019-02-28T07:04:36.290Z,8.70
2019-02-28T07:05:36.404Z,8.73
2019-02-28T07:06:36.639Z,8.72
2019-02-28T07:07:36.253Z,8.67
2019-02-28T07:08:36.230Z,8.72
2019-02-28T07:09:36.440Z,8.64
2019-02-28T07:10:36.224Z,8.69
2019-02-28T07:11:36.264Z,8.72
2019-02-28T07:12:36.192Z,8.67
2019-02-28T07:13:39.285Z,8.70
2019-02-28T07:14:37.634Z,8.70
2019-02-28T07:15:36.464Z,8.73
2019-02-28T07:16:37.865Z,8.69
2019-02-28T07:17:36.175Z,8.66
2019-02-28T07:18:36.128Z,8.69
2019-02-28T07:19:36.110Z,8.69
2019-02-28T07:20:36.199Z,8.69
2019-02-28T07:21:36.113Z,8.73
2019-02-28T07:22:36.121Z,8.72
2019-02-28T07:23:36.070Z,8.78
2019-02-28T07:24:37.582Z,8.77
2019-02-28T07:25:36.065Z,8.78
2019-02-28T07:26:36.045Z,8.80
2019-02-28T07:27:36.083Z,8.80
2019-02-28T07:28:37.259Z,8.82
2019-02-28T07:29:35.999Z,8.73
2019-02-28T07:30:35.997Z,8.80
2019-02-28T07:31:35.994Z,8.75
2019-02-28T07:32:36.018Z,8.80
2019-02-28T07:33:35.953Z,8.75
2019-02-28T07:34:35.955Z,8.87
2019-02-28T07:35:36.894Z,8.81
2019-02-28T07:36:35.936Z,8.80
2019-02-28T07:37:35.927Z,8.78
2019-02-28T07:38:35.905Z,8.78
2019-02-28T07:39:36.528Z,8.77
2019-02-28T07:40:35.922Z,8.82
2019-02-28T07:41:35.883Z,8.82
2019-02-28T07:42:37.622Z,8.78
2019-02-28T07:43:35.838Z,8.82
2019-02-28T07:44:37.988Z,8.77
2019-02-28T07:45:35.856Z,8.82
2019-02-28T07:46:38.689Z,8.84
2019-02-28T07:47:36.817Z,8.95
2019-02-28T07:48:35.782Z,8.93
2019-02-28T07:49:36.939Z,8.93
2019-02-28T07:50:35.912Z,8.90
2019-02-28T07:51:35.763Z,8.93
2019-02-28T07:52:35.753Z,8.91
2019-02-28T07:53:35.730Z,9.00
2019-02-28T07:54:35.733Z,9.02
2019-02-28T07:55:35.745Z,8.99
2019-02-28T07:56:42.474Z,8.99
2019-02-28T07:57:36.711Z,9.10
2019-02-28T07:58:35.679Z,9.06
2019-02-28T07:59:40.873Z,9.10
2019-02-28T08:00:36.675Z,8.98
2019-02-28T08:01:35.650Z,9.11
2019-02-28T08:02:39.098Z,9.18
2019-02-28T08:03:35.689Z,8.98
2019-02-28T08:04:35.617Z,9.02
2019-02-28T08:05:35.595Z,9.10
2019-02-28T08:06:36.305Z,9.10
2019-02-28T08:07:35.583Z,9.05
2019-02-28T08:08:35.572Z,9.03
2019-02-28T08:09:36.878Z,9.19
2019-02-28T08:10:36.532Z,9.15
2019-02-28T08:11:35.536Z,9.18
2019-02-28T08:12:35.525Z,9.16
2019-02-28T08:13:37.736Z,9.24
2019-02-28T08:14:35.496Z,9.18
2019-02-28T08:15:35.477Z,9.19
2019-02-28T08:16:35.463Z,9.21
2019-02-28T08:17:35.477Z,9.24
2019-02-28T08:18:35.469Z,9.24
2019-02-28T08:19:35.439Z,9.21
2019-02-28T08:20:35.417Z,9.15
2019-02-28T08:21:35.426Z,9.16
2019-02-28T08:22:35.420Z,9.25
2019-02-28T08:23:37.398Z,9.21
2019-02-28T08:24:36.083Z,9.32
2019-02-28T08:25:35.383Z,9.34
2019-02-28T08:26:35.354Z,9.42
2019-02-28T08:27:35.346Z,9.49
2019-02-28T08:28:36.792Z,9.55
2019-02-28T08:29:35.343Z,9.58
2019-02-28T08:30:35.309Z,9.57
2019-02-28T08:31:35.309Z,9.69
2019-02-28T08:32:35.302Z,9.70
2019-02-28T08:33:35.294Z,9.76
2019-02-28T08:34:35.270Z,9.82
2019-02-28T08:35:36.007Z,9.75
2019-02-28T08:36:35.245Z,9.86
2019-02-28T08:37:35.234Z,9.86
2019-02-28T08:38:35.239Z,9.85
2019-02-28T08:39:35.228Z,9.88
2019-02-28T08:40:35.198Z,9.98
2019-02-28T08:41:35.207Z,10.01
2019-02-28T08:42:38.705Z,9.93
2019-02-28T08:43:35.222Z,9.85
2019-02-28T08:44:35.164Z,9.88
2019-02-28T08:45:35.143Z,9.90
2019-02-28T08:46:35.136Z,9.91
2019-02-28T08:47:35.159Z,10.01
2019-02-28T08:48:35.104Z,9.94
2019-02-28T08:49:35.107Z,9.86
2019-02-28T08:50:35.090Z,9.82
2019-02-28T08:51:35.075Z,9.90
2019-02-28T08:52:37.700Z,9.88
2019-02-28T08:53:36.057Z,9.93
2019-02-28T08:54:35.065Z,9.90
2019-02-28T08:55:38.494Z,9.86
2019-02-28T08:56:35.035Z,9.80
2019-02-28T08:57:35.025Z,9.88
2019-02-28T08:58:37.615Z,9.88
2019-02-28T08:59:35.017Z,9.86
2019-02-28T09:00:34.987Z,9.86
2019-02-28T09:01:40.077Z,9.86
2019-02-28T09:02:35.950Z,9.85
2019-02-28T09:03:34.951Z,9.83
2019-02-28T09:04:41.181Z,9.88
2019-02-28T09:05:35.915Z,9.88
2019-02-28T09:06:37.821Z,9.90
2019-02-28T09:07:35.887Z,9.97
2019-02-28T09:08:34.884Z,9.93
2019-02-28T09:09:35.315Z,9.95
2019-02-28T09:10:34.855Z,9.98
2019-02-28T09:11:34.859Z,9.91
2019-02-28T09:12:34.840Z,9.97
2019-02-28T09:13:34.825Z,9.95
2019-02-28T09:14:34.836Z,9.97
2019-02-28T09:15:34.806Z,9.98
2019-02-28T09:16:36.719Z,10.00
2019-02-28T09:17:34.775Z,10.06
2019-02-28T09:18:34.785Z,10.10
2019-02-28T09:19:36.029Z,10.13
2019-02-28T09:20:34.738Z,10.16
2019-02-28T09:21:34.729Z,10.10
2019-02-28T09:22:34.722Z,10.16
2019-02-28T09:23:37.681Z,10.10
2019-02-28T09:24:34.715Z,10.20
2019-02-28T09:25:34.693Z,10.16
2019-02-28T09:26:34.671Z,10.20
2019-02-28T09:27:35.288Z,10.20
2019-02-28T09:28:34.659Z,10.16
2019-02-28T09:29:34.674Z,10.28
2019-02-28T09:30:34.666Z,10.26
2019-02-28T09:31:38.722Z,10.33
2019-02-28T09:32:34.604Z,10.33
2019-02-28T09:33:34.602Z,10.30
2019-02-28T09:34:34.614Z,10.30
2019-02-28T09:35:34.581Z,10.34
2019-02-28T09:36:34.574Z,10.41
2019-02-28T09:37:34.550Z,10.34
2019-02-28T09:38:34.544Z,10.35
2019-02-28T09:39:35.792Z,10.34
2019-02-28T09:40:34.509Z,10.40
2019-02-28T09:41:36.502Z,10.52
2019-02-28T09:42:35.492Z,10.57
2019-02-28T09:43:34.518Z,10.60
2019-02-28T09:44:34.514Z,10.62
2019-02-28T09:45:34.454Z,10.60
2019-02-28T09:46:34.465Z,10.71
2019-02-28T09:47:34.451Z,10.67
2019-02-28T09:48:37.230Z,10.70
2019-02-28T09:49:34.472Z,10.75
2019-02-28T09:50:34.412Z,10.78
2019-02-28T09:51:34.388Z,10.82
2019-02-28T09:52:34.400Z,10.90
2019-02-28T09:53:34.365Z,10.93
2019-02-28T09:54:34.369Z,10.90
2019-02-28T09:55:35.399Z,10.90
2019-02-28T09:56:34.370Z,11.01
2019-02-28T09:57:34.319Z,11.05
2019-02-28T09:58:34.379Z,11.10
2019-02-28T09:59:37.803Z,11.12
2019-02-28T10:00:34.309Z,11.12
2019-02-28T10:01:34.270Z,11.15
2019-02-28T10:02:34.258Z,11.14
2019-02-28T10:03:34.718Z,11.25
2019-02-28T10:04:34.249Z,11.23
2019-02-28T10:05:34.259Z,11.41
2019-02-28T10:06:34.225Z,11.38
2019-02-28T10:07:34.203Z,11.28
2019-02-28T10:08:36.813Z,11.38
2019-02-28T10:09:34.203Z,11.30
2019-02-28T10:10:34.199Z,11.37
2019-02-28T10:11:34.157Z,11.41
2019-02-28T10:12:34.157Z,11.50
2019-02-28T10:13:34.135Z,11.56
2019-02-28T10:14:34.677Z,11.53
2019-02-28T10:15:34.131Z,11.54
2019-02-28T10:16:34.107Z,11.58
2019-02-28T10:17:34.098Z,11.69
2019-02-28T10:18:35.488Z,11.68
2019-02-28T10:19:43.052Z,11.72
2019-02-28T10:20:35.096Z,11.71
2019-02-28T10:21:36.468Z,11.83
2019-02-28T10:22:34.053Z,11.80
2019-02-28T10:23:34.022Z,11.72
2019-02-28T10:24:34.011Z,11.88
2019-02-28T10:25:34.019Z,11.88
2019-02-28T10:26:33.991Z,11.96
2019-02-28T10:27:34.006Z,11.91
2019-02-28T10:28:33.983Z,11.96
2019-02-28T10:29:33.955Z,12.07
2019-02-28T10:30:33.984Z,12.13
2019-02-28T10:31:38.026Z,12.15
2019-02-28T10:32:33.937Z,12.10
2019-02-28T10:33:33.930Z,12.20
2019-02-28T10:34:35.369Z,12.14
2019-02-28T10:35:36.649Z,12.09
2019-02-28T10:36:33.879Z,12.13
2019-02-28T10:37:35.597Z,12.09
2019-02-28T10:38:33.984Z,11.99
2019-02-28T10:39:33.845Z,11.95
2019-02-28T10:40:33.862Z,11.76
2019-02-28T10:41:33.837Z,11.87
2019-02-28T10:42:33.817Z,11.83
2019-02-28T10:43:33.809Z,11.97
2019-02-28T10:44:33.809Z,11.97
2019-02-28T10:45:33.795Z,12.02
2019-02-28T10:46:33.802Z,12.05
2019-02-28T10:47:33.757Z,12.07
2019-02-28T10:48:35.300Z,12.17
2019-02-28T10:49:33.733Z,12.15
2019-02-28T10:50:33.767Z,12.06
2019-02-28T10:51:33.713Z,12.21
2019-02-28T10:52:33.713Z,12.28
2019-02-28T10:53:36.296Z,12.35
2019-02-28T10:54:34.686Z,12.39
2019-02-28T10:55:33.691Z,12.43
2019-02-28T10:56:33.655Z,12.43
2019-02-28T10:57:33.647Z,12.53
2019-02-28T10:58:33.635Z,12.61
2019-02-28T10:59:33.624Z,12.61
2019-02-28T11:00:33.768Z,12.63
2019-02-28T11:01:33.607Z,12.58
2019-02-28T11:02:33.606Z,12.72
2019-02-28T11:03:33.574Z,12.72
2019-02-28T11:04:33.564Z,12.72
2019-02-28T11:05:33.575Z,12.88
2019-02-28T11:06:33.553Z,13.05
2019-02-28T11:07:34.237Z,13.11
2019-02-28T11:08:33.540Z,13.29
2019-02-28T11:09:33.606Z,13.45
2019-02-28T11:10:35.484Z,13.64
2019-02-28T11:11:33.485Z,13.67
2019-02-28T11:12:33.480Z,13.92
2019-02-28T11:13:33.464Z,14.05
2019-02-28T11:14:35.556Z,14.22
2019-02-28T11:15:34.468Z,14.44
2019-02-28T11:16:33.448Z,14.82
2019-02-28T11:17:34.207Z,15.06
2019-02-28T11:18:33.404Z,15.43
2019-02-28T11:19:33.394Z,15.80
2019-02-28T11:20:33.410Z,16.31
2019-02-28T11:21:33.376Z,16.74
2019-02-28T11:22:33.354Z,17.06
2019-02-28T11:23:33.363Z,17.39
2019-02-28T11:24:33.354Z,17.97
2019-02-28T11:25:35.569Z,18.43
2019-02-28T11:26:33.314Z,18.74
2019-02-28T11:27:33.321Z,19.48
2019-02-28T11:28:33.322Z,19.74
2019-02-28T11:29:35.081Z,20.24
2019-02-28T11:30:33.289Z,20.62
2019-02-28T11:31:33.288Z,20.82
2019-02-28T11:32:33.262Z,21.14
2019-02-28T11:33:33.241Z,21.52
2019-02-28T11:34:33.231Z,21.92
2019-02-28T11:35:33.273Z,22.15
2019-02-28T11:36:34.082Z,22.25
2019-02-28T11:37:33.192Z,22.29
2019-02-28T11:38:33.192Z,22.48
2019-02-28T11:39:33.789Z,22.93
2019-02-28T11:40:33.182Z,23.34
2019-02-28T11:41:33.149Z,23.58
2019-02-28T11:42:33.158Z,23.77
2019-02-28T11:43:37.221Z,24.05
2019-02-28T11:44:34.119Z,24.28
2019-02-28T11:45:33.107Z,24.50
2019-02-28T11:46:35.608Z,24.48
2019-02-28T11:47:33.087Z,24.66
2019-02-28T11:48:33.073Z,24.58
2019-02-28T11:49:33.107Z,24.55
2019-02-28T11:50:33.046Z,24.33
2019-02-28T11:51:33.051Z,24.11
2019-02-28T11:52:33.028Z,24.00
2019-02-28T11:53:33.008Z,23.74
2019-02-28T11:54:33.000Z,23.63
2019-02-28T11:55:32.993Z,23.46
2019-02-28T11:56:33.005Z,23.36
2019-02-28T11:57:32.987Z,23.15
2019-02-28T11:58:32.956Z,23.02
2019-02-28T11:59:32.951Z,22.51
2019-02-28T12:00:35.635Z,22.47
2019-02-28T12:01:32.941Z,22.58
2019-02-28T12:02:32.935Z,22.73
2019-02-28T12:03:35.483Z,22.84
2019-02-28T12:04:32.889Z,23.14
2019-02-28T12:05:32.877Z,23.21
2019-02-28T12:06:32.892Z,23.36
2019-02-28T12:07:34.870Z,23.44
2019-02-28T12:08:32.858Z,23.59
2019-02-28T12:09:33.136Z,23.84
2019-02-28T12:10:32.819Z,24.37
2019-02-28T12:11:33.523Z,24.63
2019-02-28T12:12:32.814Z,24.81
2019-02-28T12:13:32.796Z,25.03
2019-02-28T12:14:32.800Z,25.01
2019-02-28T12:15:32.778Z,24.76
2019-02-28T12:16:32.774Z,24.66
2019-02-28T12:17:32.742Z,24.36
2019-02-28T12:18:32.747Z,23.96
2019-02-28T12:19:32.729Z,23.81
2019-02-28T12:20:32.726Z,23.52
2019-02-28T12:21:37.656Z,23.00
2019-02-28T12:22:33.697Z,22.77
2019-02-28T12:23:32.677Z,22.29
2019-02-28T12:24:33.242Z,22.03
2019-02-28T12:25:32.678Z,21.98
2019-02-28T12:26:32.680Z,21.88
2019-02-28T12:27:32.643Z,21.55
2019-02-28T12:28:35.253Z,21.47
2019-02-28T12:29:33.617Z,21.29
2019-02-28T12:30:32.600Z,21.21
2019-02-28T12:31:35.613Z,21.05
2019-02-28T12:32:32.581Z,21.08
2019-02-28T12:33:32.563Z,21.22
2019-02-28T12:34:32.587Z,21.40
2019-02-28T12:35:37.491Z,21.18
2019-02-28T12:36:33.560Z,21.18
2019-02-28T12:37:34.348Z,21.29
2019-02-28T12:38:32.523Z,21.50
2019-02-28T12:39:33.387Z,21.81
2019-02-28T12:40:32.486Z,22.10
2019-02-28T12:41:32.491Z,22.36
2019-02-28T12:42:34.614Z,22.36
2019-02-28T12:43:32.447Z,22.53
2019-02-28T12:44:32.468Z,22.72
2019-02-28T12:45:32.434Z,22.84
2019-02-28T12:46:32.783Z,22.96
2019-02-28T12:47:32.421Z,22.81
2019-02-28T12:48:32.405Z,22.85
2019-02-28T12:49:32.387Z,22.85
2019-02-28T12:50:32.388Z,22.77
2019-02-28T12:51:32.421Z,22.43
2019-02-28T12:52:32.353Z,22.41
2019-02-28T12:53:32.637Z,22.17
2019-02-28T12:54:33.406Z,22.05
2019-02-28T12:55:35.171Z,21.92
2019-02-28T12:56:32.324Z,21.66
2019-02-28T12:57:32.301Z,21.69
2019-02-28T12:58:38.731Z,21.55
2019-02-28T12:59:34.763Z,21.48
2019-02-28T13:00:32.260Z,21.42
2019-02-28T13:01:33.131Z,21.26
2019-02-28T13:02:32.239Z,21.22